Time;durP1;ratioP1;P1;durP2;ratioP2;P2;SDS_P1;SDS_P2;PMS_P1;PMS_P2;Temp;Humidity;BMP_temperature;BMP_pressure;BME280_temperature;BME280_humidity;BME280_pressure;Samples;Min_cycle;Max_cycle;Signal;HPM_P1;HPM_P2
2022/10/06 00:01:25;;;;;;;34.80;31.60;;;;;;;6.58;97.81;98541.36;106229;1271;25271;-82
2022/10/06 00:03:53;;;;;;;17.60;15.70;;;;;;;6.60;97.92;98543.31;106363;1270;23233;-82
2022/10/06 00:06:21;;;;;;;20.30;16.70;;;;;;;6.71;99.60;98543.48;106357;1271;25456;-81
2022/10/06 00:08:49;;;;;;;17.40;15.30;;;;;;;6.90;100.00;98550.48;106387;1270;24233;-81
2022/10/06 00:11:17;;;;;;;15.00;13.40;;;;;;;7.11;100.00;98551.14;106348;1270;24367;-81
2022/10/06 00:13:45;;;;;;;19.00;12.50;;;;;;;7.33;100.00;98550.23;106394;1271;22536;-81
2022/10/06 00:16:17;;;;;;;15.50;13.30;;;;;;;7.54;100.00;98553.95;106377;1271;24388;-81
2022/10/06 00:18:44;;;;;;;17.10;11.40;;;;;;;7.72;100.00;98551.44;106415;1271;22571;-82
2022/10/06 00:21:13;;;;;;;12.70;11.40;;;;;;;7.87;100.00;98553.04;106333;1274;25247;-81
2022/10/06 00:23:41;;;;;;;17.60;12.00;;;;;;;8.02;100.00;98554.36;106374;1270;22788;-81
2022/10/06 00:26:11;;;;;;;18.90;11.20;;;;;;;8.15;100.00;98558.41;106374;1271;23208;-82
2022/10/06 00:28:39;;;;;;;15.00;11.50;;;;;;;8.27;100.00;98558.59;106411;1269;22645;-81
2022/10/06 00:31:07;;;;;;;13.80;10.90;;;;;;;8.39;100.00;98562.90;106359;1271;22537;-82
2022/10/06 00:33:36;;;;;;;13.00;10.50;;;;;;;8.51;100.00;98566.63;106339;1271;22538;-82
2022/10/06 00:36:04;;;;;;;13.70;9.80;;;;;;;8.62;100.00;98566.73;106370;1271;25634;-81
2022/10/06 00:38:32;;;;;;;13.60;10.50;;;;;;;8.72;100.00;98564.84;106346;1271;22522;-82
2022/10/06 00:41:00;;;;;;;14.60;9.50;;;;;;;8.82;100.00;98560.05;106386;1271;24274;-81
2022/10/06 00:43:44;;;;;;;13.00;9.80;;;;;;;8.93;100.00;98560.42;106331;1271;23916;-82
2022/10/06 00:46:21;;;;;;;12.60;9.60;;;;;;;9.03;100.00;98562.44;106339;1271;22740;-82
2022/10/06 00:48:57;;;;;;;12.50;9.60;;;;;;;9.09;99.99;98561.40;106343;1271;25300;-82
2022/10/06 00:51:27;;;;;;;11.80;9.20;;;;;;;9.14;99.96;98564.73;106321;1271;22706;-82
2022/10/06 00:53:56;;;;;;;12.40;8.70;;;;;;;9.19;99.93;98568.01;106379;1271;23409;-82
2022/10/06 00:56:25;;;;;;;14.10;8.60;;;;;;;9.23;100.00;98571.91;106284;1271;24382;-84
2022/10/06 00:58:52;;;;;;;11.40;8.30;;;;;;;9.30;99.72;98569.97;106276;1271;22751;-82
2022/10/06 01:01:22;;;;;;;12.70;8.60;;;;;;;9.38;99.51;98570.03;106236;1271;25398;-81
2022/10/06 01:03:56;;;;;;;14.10;9.10;;;;;;;9.45;99.34;98573.89;106206;1271;25325;-81
2022/10/06 01:06:24;;;;;;;;;;;;;;;9.50;99.16;98576.39;106228;1271;24188;-81
2022/10/06 01:08:52;;;;;;;12.90;7.80;;;;;;;9.53;98.70;98580.12;106231;1271;25220;-82
2022/10/06 01:11:20;;;;;;;12.30;8.70;;;;;;;9.58;98.69;98578.20;106202;1271;22521;-82
2022/10/06 01:13:48;;;;;;;13.30;9.40;;;;;;;9.62;98.57;98584.27;106198;1271;22691;-82
2022/10/06 01:16:23;;;;;;;12.60;9.70;;;;;;;9.66;98.52;98584.25;106238;1271;22703;-82
2022/10/06 01:18:54;;;;;;;11.50;10.20;;;;;;;9.68;98.35;98582.58;106282;1271;22750;-82
2022/10/06 01:21:46;;;;;;;14.80;9.70;;;;;;;9.70;98.19;98585.09;106328;1271;22648;-82
2022/10/06 01:24:17;;;;;;;12.10;10.10;;;;;;;9.71;98.03;98585.52;106242;1271;25356;-82
2022/10/06 01:26:50;;;;;;;16.00;10.00;;;;;;;9.71;98.02;98587.63;106428;1271;23378;-82
2022/10/06 01:29:19;;;;;;;11.60;10.40;;;;;;;9.74;97.81;98586.48;106323;1271;22544;-82
2022/10/06 01:31:47;;;;;;;14.30;10.00;;;;;;;9.77;97.90;98588.13;106331;1271;24256;-82
2022/10/06 01:34:16;;;;;;;17.20;10.30;;;;;;;9.79;98.00;98587.10;106335;1271;24273;-82
2022/10/06 01:36:45;;;;;;;12.00;10.30;;;;;;;9.80;97.61;98589.08;106390;1271;24361;-81
2022/10/06 01:39:13;;;;;;;13.00;11.00;;;;;;;9.80;97.52;98589.47;106305;1271;22531;-81
2022/10/06 01:41:41;;;;;;;12.70;11.30;;;;;;;9.78;97.41;98591.56;106337;1271;22619;-82
2022/10/06 01:44:09;;;;;;;16.80;10.60;;;;;;;9.76;97.42;98588.56;106323;1271;22699;-82
2022/10/06 01:46:37;;;;;;;13.00;11.00;;;;;;;9.73;97.37;98587.45;106214;1272;25532;-82
2022/10/06 01:49:05;;;;;;;14.70;10.40;;;;;;;9.72;97.55;98587.30;106206;1271;22757;-82
2022/10/06 01:51:34;;;;;;;10.90;9.70;;;;;;;9.73;97.60;98590.19;106226;1271;23392;-81
2022/10/06 01:54:02;;;;;;;15.30;10.70;;;;;;;9.72;97.62;98590.78;106130;1271;22571;-81
2022/10/06 01:56:30;;;;;;;14.30;10.70;;;;;;;9.71;97.32;98586.33;106196;1271;22556;-83
2022/10/06 01:58:58;;;;;;;12.60;10.00;;;;;;;9.71;97.43;98587.94;106185;1271;22540;-82
2022/10/06 02:01:26;;;;;;;12.40;10.00;;;;;;;9.71;97.22;98588.91;106227;1270;25340;-82
2022/10/06 02:03:54;;;;;;;12.30;9.80;;;;;;;9.69;97.16;98586.70;106167;1274;22563;-81
2022/10/06 02:06:23;;;;;;;13.40;10.20;;;;;;;9.72;97.22;98593.05;106253;1271;25306;-82
2022/10/06 02:08:51;;;;;;;11.90;9.60;;;;;;;9.75;97.16;98592.81;106192;1274;24412;-82
2022/10/06 02:11:18;;;;;;;14.20;10.60;;;;;;;9.76;97.00;98595.94;106197;1271;22553;-82
2022/10/06 02:13:48;;;;;;;12.90;9.80;;;;;;;9.75;96.94;98590.88;106194;1271;24093;-85
2022/10/06 02:16:16;;;;;;;12.50;10.20;;;;;;;9.70;96.95;98592.95;106234;1271;25496;-83
2022/10/06 02:18:44;;;;;;;13.80;10.00;;;;;;;9.67;97.12;98591.34;106260;1271;22663;-82
2022/10/06 02:21:18;;;;;;;15.20;9.80;;;;;;;9.66;96.79;98595.67;106203;1271;24287;-82
2022/10/06 02:23:47;;;;;;;11.90;9.20;;;;;;;9.67;97.08;98596.24;106373;1271;24388;-81
2022/10/06 02:26:16;;;;;;;14.80;10.40;;;;;;;9.68;97.29;98599.25;106618;1271;22562;-82
2022/10/06 02:28:45;;;;;;;12.50;10.10;;;;;;;9.69;96.93;98597.85;106228;1271;22566;-78
2022/10/06 02:31:16;;;;;;;15.20;10.60;;;;;;;9.66;96.93;98596.57;106145;1271;25565;-82
2022/10/06 02:33:44;;;;;;;12.70;10.00;;;;;;;9.65;97.01;98599.65;106165;1271;22629;-82
2022/10/06 02:36:14;;;;;;;11.20;8.60;;;;;;;9.66;96.92;98599.48;106169;1271;25394;-82
2022/10/06 02:38:43;;;;;;;11.30;9.60;;;;;;;9.68;97.18;98601.58;106192;1271;22701;-82
2022/10/06 02:41:11;;;;;;;12.90;8.60;;;;;;;9.67;97.05;98600.06;106234;1271;22547;-82
2022/10/06 02:43:39;;;;;;;16.00;9.40;;;;;;;9.66;96.82;98597.48;106215;1274;24342;-82
2022/10/06 02:46:11;;;;;;;14.50;9.30;;;;;;;9.65;96.75;98598.04;106298;1271;22679;-82
2022/10/06 02:48:43;;;;;;;16.80;8.90;;;;;;;9.65;96.96;98597.88;106337;1270;25334;-82
2022/10/06 02:51:17;;;;;;;12.90;9.90;;;;;;;9.65;96.86;98594.48;106285;1271;24158;-82
2022/10/06 02:53:47;;;;;;;;;;;;;;;9.67;96.92;98593.60;106457;1271;23927;-81
2022/10/06 02:56:18;;;;;;;10.20;8.20;;;;;;;9.67;96.78;98590.42;106303;1271;24290;-82
2022/10/06 02:58:48;;;;;;;13.90;9.90;;;;;;;9.68;96.84;98597.05;106407;1271;25446;-82
2022/10/06 03:01:26;;;;;;;11.80;9.10;;;;;;;9.68;96.83;98596.73;106358;1271;24224;-82
2022/10/06 03:03:57;;;;;;;12.00;8.50;;;;;;;9.67;96.63;98602.27;106373;1271;22678;-82
2022/10/06 03:06:29;;;;;;;13.00;9.30;;;;;;;9.65;96.65;98605.89;106365;1271;25204;-82
2022/10/06 03:09:08;;;;;;;11.90;8.70;;;;;;;9.66;96.43;98606.59;106288;1271;22617;-82
2022/10/06 03:11:41;;;;;;;15.60;8.60;;;;;;;9.66;96.51;98607.34;106381;1271;26483;-82
2022/10/06 03:14:11;;;;;;;12.00;9.70;;;;;;;9.65;96.62;98603.56;106379;1270;26591;-80
2022/10/06 03:16:44;;;;;;;13.10;9.90;;;;;;;9.63;96.47;98603.90;106613;1271;22722;-83
2022/10/06 03:19:16;;;;;;;14.90;11.40;;;;;;;9.62;96.64;98606.27;106606;1271;24304;-82
2022/10/06 03:21:45;;;;;;;17.00;9.70;;;;;;;9.61;96.35;98605.63;106320;1271;22562;-82
2022/10/06 03:24:14;;;;;;;12.30;8.80;;;;;;;9.59;96.24;98603.48;106334;1271;24370;-82
2022/10/06 03:26:46;;;;;;;11.60;9.20;;;;;;;9.58;96.17;98608.66;106268;1272;22711;-82
2022/10/06 03:29:17;;;;;;;13.70;12.20;;;;;;;9.56;96.23;98609.14;106275;1273;25374;-82
2022/10/06 03:31:50;;;;;;;19.20;16.10;;;;;;;9.51;96.14;98610.29;106503;1271;22693;-82
2022/10/06 03:34:18;;;;;;;13.60;8.90;;;;;;;9.48;96.25;98612.39;106486;1271;24358;-81
2022/10/06 03:36:46;;;;;;;17.70;9.60;;;;;;;9.46;96.15;98613.42;106531;1270;22589;-83
2022/10/06 03:39:14;;;;;;;12.30;9.90;;;;;;;9.45;96.34;98607.95;106474;1271;22740;-82
2022/10/06 03:41:43;;;;;;;12.40;9.20;;;;;;;9.45;96.10;98611.39;106354;1271;26558;-82
2022/10/06 03:44:11;;;;;;;12.90;10.80;;;;;;;9.43;96.20;98613.38;106434;1271;26510;-82
2022/10/06 03:46:41;;;;;;;15.50;10.40;;;;;;;9.37;95.90;98616.30;106265;1274;22544;-82
2022/10/06 03:49:10;;;;;;;12.10;9.40;;;;;;;9.31;96.19;98616.96;106296;1271;25372;-81
2022/10/06 03:51:40;;;;;;;12.50;11.20;;;;;;;9.29;96.23;98616.73;106301;1274;22640;-82
2022/10/06 03:54:15;;;;;;;10.80;8.70;;;;;;;9.27;96.10;98619.77;106451;1271;24205;-82
2022/10/06 03:56:45;;;;;;;12.20;8.90;;;;;;;9.27;96.33;98620.25;106454;1271;24091;-82
2022/10/06 03:59:16;;;;;;;13.50;9.60;;;;;;;9.26;96.09;98620.84;106248;1271;24749;-81
2022/10/06 04:01:47;;;;;;;11.10;8.20;;;;;;;9.22;96.17;98616.40;106438;1271;22554;-82
2022/10/06 04:04:22;;;;;;;11.00;7.70;;;;;;;9.18;96.11;98614.03;106434;1271;25299;-82
2022/10/06 04:06:54;;;;;;;13.30;8.70;;;;;;;9.15;96.33;98616.50;106450;1271;23869;-82
2022/10/06 04:09:22;;;;;;;12.70;8.70;;;;;;;9.16;96.05;98619.09;106404;1271;25228;-83
2022/10/06 04:11:51;;;;;;;23.60;21.40;;;;;;;9.18;96.01;98624.04;106406;1271;22795;-82
2022/10/06 04:14:20;;;;;;;12.60;10.00;;;;;;;9.18;96.01;98624.15;106466;1271;25346;-86
2022/10/06 04:16:49;;;;;;;13.50;10.90;;;;;;;9.14;95.96;98625.91;106418;1271;24196;-84
2022/10/06 04:19:43;;;;;;;14.60;11.30;;;;;;;9.10;95.95;98625.38;106336;1271;24236;-82
2022/10/06 04:22:11;;;;;;;14.30;10.30;;;;;;;9.04;95.92;98626.14;106188;1272;25617;-82
2022/10/06 04:24:39;;;;;;;12.70;7.30;;;;;;;8.99;95.49;98625.84;106397;1271;23948;-81
2022/10/06 04:30:10;;;;;;;14.40;11.60;;;;;;;8.93;96.03;98630.52;106211;1271;22539;-83
2022/10/06 04:32:39;;;;;;;13.80;11.50;;;;;;;8.93;96.30;98630.08;106392;1271;25324;-82
2022/10/06 04:35:07;;;;;;;15.00;8.80;;;;;;;8.92;95.85;98637.07;106234;1271;22576;-82
2022/10/06 04:37:35;;;;;;;9.80;8.20;;;;;;;8.80;96.02;98637.02;106230;1271;22525;-82
2022/10/06 04:40:03;;;;;;;12.20;8.70;;;;;;;8.77;96.09;98632.02;106212;1271;26574;-83
2022/10/06 04:42:32;;;;;;;12.40;9.90;;;;;;;8.80;96.36;98630.56;106477;1271;26633;-82
2022/10/06 04:45:05;;;;;;;9.40;7.60;;;;;;;8.81;96.26;98634.92;106484;1271;22535;-82
2022/10/06 04:47:34;;;;;;;12.00;7.60;;;;;;;8.84;96.06;98635.08;106498;1271;24353;-81
2022/10/06 04:50:03;;;;;;;10.80;9.40;;;;;;;8.86;96.15;98637.88;106468;1271;25454;-83
2022/10/06 04:52:31;;;;;;;13.00;9.10;;;;;;;8.85;96.24;98641.75;106249;1271;23660;-82
2022/10/06 04:54:59;;;;;;;16.70;10.10;;;;;;;8.84;96.11;98644.02;106252;1271;25480;-83
2022/10/06 04:57:27;;;;;;;14.30;10.30;;;;;;;8.78;96.20;98649.23;106439;1271;25334;-83
2022/10/06 05:02:56;;;;;;;14.50;11.10;;;;;;;8.65;95.62;98656.89;106269;1271;25276;-81
2022/10/06 05:05:24;;;;;;;17.60;10.40;;;;;;;8.61;95.45;98664.14;106436;1271;22528;-82
2022/10/06 05:07:54;;;;;;;13.20;10.70;;;;;;;8.62;96.27;98665.11;106454;1271;22678;-82
2022/10/06 05:10:22;;;;;;;12.00;10.30;;;;;;;8.62;96.32;98664.20;106361;1271;22542;-82
2022/10/06 05:12:50;;;;;;;13.50;10.10;;;;;;;8.60;96.26;98667.85;106397;1271;25294;-82
2022/10/06 05:15:18;;;;;;;12.40;9.70;;;;;;;8.61;96.26;98668.39;106527;1271;25276;-82
2022/10/06 05:17:46;;;;;;;16.00;9.90;;;;;;;8.63;96.23;98663.88;106249;1271;24396;-82
2022/10/06 05:20:15;;;;;;;14.10;10.40;;;;;;;8.66;96.04;98668.08;106517;1271;25371;-82
2022/10/06 05:22:44;;;;;;;12.80;10.10;;;;;;;8.69;96.34;98671.03;106521;1271;25327;-83
2022/10/06 05:25:12;;;;;;;11.70;10.20;;;;;;;8.71;96.44;98670.45;106311;1272;22684;-82
2022/10/06 05:27:39;;;;;;;12.70;10.80;;;;;;;8.72;96.20;98673.77;106275;1271;24086;-83
2022/10/06 05:30:08;;;;;;;13.00;10.50;;;;;;;8.73;96.22;98674.25;106276;1271;24357;-82
2022/10/06 05:32:37;;;;;;;13.10;9.40;;;;;;;8.75;96.30;98670.77;106445;1271;22542;-85
2022/10/06 05:35:06;;;;;;;12.30;10.00;;;;;;;8.81;96.36;98676.84;106358;1271;24405;-82
2022/10/06 05:37:35;;;;;;;10.10;8.70;;;;;;;8.82;95.98;98685.33;106487;1271;25323;-82
2022/10/06 05:40:04;;;;;;;17.70;9.30;;;;;;;8.86;96.53;98684.53;106485;1271;25390;-82
2022/10/06 05:42:31;;;;;;;14.30;9.10;;;;;;;8.94;96.92;98686.04;106294;1271;25293;-83
2022/10/06 05:45:00;;;;;;;13.10;9.30;;;;;;;9.02;97.17;98686.74;106490;1271;26615;-83
2022/10/06 05:47:28;;;;;;;17.80;10.00;;;;;;;9.12;97.23;98689.37;106650;1271;23228;-83
2022/10/06 05:49:56;;;;;;;12.20;8.60;;;;;;;9.24;97.09;98692.86;106296;1271;22547;-83
2022/10/06 05:52:24;;;;;;;12.60;8.90;;;;;;;9.37;97.43;98692.26;106310;1271;22636;-83
2022/10/06 05:54:53;;;;;;;13.90;9.30;;;;;;;9.52;97.32;98692.23;106442;1271;22528;-84
2022/10/06 05:57:21;;;;;;;13.60;9.60;;;;;;;9.64;97.40;98696.30;106518;1271;24360;-82
2022/10/06 05:59:49;;;;;;;13.10;9.70;;;;;;;9.75;97.20;98698.96;106470;1271;22696;-83
2022/10/06 06:02:17;;;;;;;12.90;9.30;;;;;;;9.88;97.27;98706.95;106528;1271;25393;-85
2022/10/06 06:04:46;;;;;;;15.30;9.90;;;;;;;10.02;97.15;98709.42;106308;1274;25235;-84
2022/10/06 06:07:14;;;;;;;11.40;9.50;;;;;;;10.16;96.98;98715.83;106355;1271;24293;-83
2022/10/06 06:09:43;;;;;;;13.80;9.40;;;;;;;10.27;96.89;98722.55;106323;1271;25457;-82
2022/10/06 06:12:13;;;;;;;17.30;12.90;;;;;;;10.38;96.93;98728.05;106450;1271;22614;-82
2022/10/06 06:17:53;;;;;;;33.80;17.90;;;;;;;10.62;96.96;98737.25;106513;1271;22550;-82
2022/10/06 06:20:21;;;;;;;17.60;14.00;;;;;;;10.75;96.98;98742.02;106413;1271;24219;-83
2022/10/06 06:22:52;;;;;;;19.90;13.30;;;;;;;10.88;97.10;98742.87;106357;1271;24137;-82
2022/10/06 06:25:23;;;;;;;17.80;12.10;;;;;;;11.01;96.88;98747.84;106290;1271;22629;-82
2022/10/06 06:27:54;;;;;;;15.80;10.30;;;;;;;11.13;96.30;98762.10;106506;1271;22810;-82
2022/10/06 06:30:23;;;;;;;19.70;10.90;;;;;;;11.28;95.61;98771.11;106313;1272;22757;-82
2022/10/06 06:32:54;;;;;;;17.60;10.80;;;;;;;11.46;96.05;98770.16;106500;1271;25280;-80
2022/10/06 06:35:22;;;;;;;16.30;11.50;;;;;;;11.63;95.07;98767.15;106277;1274;24272;-82
2022/10/06 06:37:50;;;;;;;20.00;12.50;;;;;;;11.77;94.69;98777.11;106311;1271;22538;-83
2022/10/06 06:40:19;;;;;;;23.00;13.00;;;;;;;11.90;94.74;98781.45;106373;1271;24403;-82
2022/10/06 06:42:46;;;;;;;18.30;12.50;;;;;;;12.03;94.57;98781.91;106422;1271;25334;-83
2022/10/06 06:45:38;;;;;;;46.90;24.50;;;;;;;12.18;94.44;98783.59;106375;1271;25668;-84
2022/10/06 06:48:36;;;;;;;39.20;22.80;;;;;;;12.36;94.41;98786.85;106228;1271;22534;-82
2022/10/06 06:51:04;;;;;;;50.10;28.50;;;;;;;12.48;94.57;98792.44;106269;1271;22663;-83
2022/10/06 06:53:33;;;;;;;33.10;24.40;;;;;;;12.54;92.18;98797.13;106442;1271;24389;-83
2022/10/06 06:56:02;;;;;;;30.80;26.30;;;;;;;12.56;93.22;98797.35;106454;1271;25343;-83
2022/10/06 06:58:32;;;;;;;24.20;21.60;;;;;;;12.66;93.46;98798.38;106506;1271;24450;-83
2022/10/06 07:01:05;;;;;;;25.50;20.90;;;;;;;12.73;93.21;98800.39;106531;1271;22869;-84
2022/10/06 07:03:33;;;;;;;19.50;17.50;;;;;;;12.72;92.61;98802.30;106334;1271;22680;-83
2022/10/06 07:06:26;;;;;;;17.70;14.80;;;;;;;12.68;91.33;98807.86;106591;1271;22566;-83
2022/10/06 07:08:58;;;;;;;19.80;15.40;;;;;;;12.69;90.18;98810.70;106613;1271;25261;-82
2022/10/06 07:11:32;;;;;;;30.70;14.40;;;;;;;12.72;89.83;98814.04;106491;1271;22535;-82
2022/10/06 07:14:05;;;;;;;17.40;13.90;;;;;;;12.77;89.60;98811.80;106425;1271;24336;-82
2022/10/06 07:25:22;;;;;;;14.90;9.20;;;;;;;13.07;87.30;98818.11;106667;1271;22739;-83
2022/10/06 07:27:59;;;;;;;15.10;8.70;;;;;;;13.16;86.62;98819.70;106484;1271;23911;-83
2022/10/06 07:30:34;;;;;;;10.00;7.20;;;;;;;13.25;86.79;98825.17;106471;1271;25344;-82
2022/10/06 07:33:11;;;;;;;11.20;7.90;;;;;;;13.33;85.75;98831.45;106428;1271;22538;-83
2022/10/06 07:35:39;;;;;;;10.40;7.90;;;;;;;13.44;85.45;98827.23;106400;1271;22848;-82
2022/10/06 07:38:08;;;;;;;11.40;7.70;;;;;;;13.55;85.20;98824.89;106341;1271;24262;-82
2022/10/06 07:40:39;;;;;;;10.50;8.20;;;;;;;13.67;84.58;98834.02;106462;1271;23329;-83
2022/10/06 07:43:23;;;;;;;8.30;6.50;;;;;;;13.79;84.81;98828.94;106290;1271;25452;-82
2022/10/06 07:45:51;;;;;;;13.30;8.20;;;;;;;13.93;84.47;98832.37;106526;1271;22726;-81
2022/10/06 07:48:30;;;;;;;10.40;7.40;;;;;;;14.02;83.49;98835.09;106485;1271;22521;-82
2022/10/06 07:51:01;;;;;;;12.60;7.40;;;;;;;14.07;83.21;98841.50;106299;1273;26582;-83
2022/10/06 07:53:36;;;;;;;10.30;7.10;;;;;;;14.15;83.25;98841.05;106561;1271;26670;-83
2022/10/06 07:56:19;;;;;;;13.70;6.90;;;;;;;14.22;83.41;98846.00;106294;1271;23546;-82
2022/10/06 07:58:50;;;;;;;11.20;7.50;;;;;;;14.31;83.01;98845.79;106475;1271;25630;-83
2022/10/06 08:01:19;;;;;;;9.70;6.70;;;;;;;14.40;82.59;98844.55;106430;1271;23005;-83
2022/10/06 08:03:49;;;;;;;11.40;7.60;;;;;;;14.47;82.20;98852.21;106535;1271;25349;-83
2022/10/06 08:06:18;;;;;;;8.70;6.90;;;;;;;14.51;81.68;98849.65;106274;1272;23323;-83
2022/10/06 08:08:47;;;;;;;12.40;6.40;;;;;;;14.58;81.98;98852.73;106554;1271;22531;-83
2022/10/06 08:11:20;;;;;;;10.90;6.70;;;;;;;14.66;81.85;98861.52;106481;1271;22595;-82
2022/10/06 08:13:50;;;;;;;9.60;6.30;;;;;;;14.72;82.39;98866.61;106534;1271;22551;-83
2022/10/06 08:16:21;;;;;;;12.10;8.20;;;;;;;14.79;81.94;98868.27;106469;1271;25344;-83
2022/10/06 08:18:54;;;;;;;14.50;7.50;;;;;;;14.85;81.72;98872.48;106481;1270;23537;-82
2022/10/06 08:21:25;;;;;;;13.10;6.50;;;;;;;14.92;81.36;98872.34;106442;1272;24339;-84
2022/10/06 08:23:57;;;;;;;13.10;7.00;;;;;;;14.96;81.18;98878.60;106644;1271;22522;-83
2022/10/06 08:26:26;;;;;;;12.00;6.90;;;;;;;14.96;81.53;98880.16;106453;1271;25237;-83
2022/10/06 08:28:58;;;;;;;13.00;7.20;;;;;;;14.96;80.91;98878.23;106581;1271;22531;-83
2022/10/06 08:31:26;;;;;;;11.70;6.80;;;;;;;14.94;81.93;98881.77;106489;1271;24239;-84
2022/10/06 08:33:56;;;;;;;12.20;6.90;;;;;;;15.03;82.23;98888.13;106282;1274;22640;-83
2022/10/06 08:36:26;;;;;;;17.40;6.60;;;;;;;15.20;82.56;98882.55;106553;1271;24336;-82
2022/10/06 08:39:00;;;;;;;10.50;7.10;;;;;;;15.37;81.55;98883.48;106413;1271;25509;-82
2022/10/06 08:41:37;;;;;;;9.40;6.00;;;;;;;15.53;79.54;98893.92;106592;1271;25335;-82
2022/10/06 08:44:17;;;;;;;11.90;6.60;;;;;;;15.66;79.28;98889.38;106355;1271;22647;-82
2022/10/06 08:47:10;;;;;;;10.40;6.10;;;;;;;15.82;78.22;98882.83;106475;1271;23224;-82
2022/10/06 08:49:44;;;;;;;11.40;7.00;;;;;;;15.99;77.72;98888.45;106556;1271;24278;-84
2022/10/06 08:52:19;;;;;;;;;;;;;;;16.11;77.04;98888.44;106562;1271;22666;-82
2022/10/06 08:54:57;;;;;;;10.60;7.00;;;;;;;16.19;76.74;98891.75;106508;1271;22675;-83
2022/10/06 08:57:29;;;;;;;16.20;6.60;;;;;;;16.29;76.54;98892.55;106512;1271;23256;-83
2022/10/06 08:59:58;;;;;;;9.60;6.20;;;;;;;16.39;77.14;98894.19;106399;1270;22618;-87
2022/10/06 09:02:33;;;;;;;10.00;6.20;;;;;;;16.52;76.07;98899.92;106523;1271;24373;-83
2022/10/06 09:05:04;;;;;;;14.50;7.30;;;;;;;16.61;75.61;98909.65;106442;1271;25457;-82
2022/10/06 09:07:57;;;;;;;11.00;7.80;;;;;;;16.66;75.63;98908.85;106418;1271;25228;-82
2022/10/06 09:10:48;;;;;;;15.90;6.40;;;;;;;16.80;75.42;98910.17;106545;1271;24077;-84
2022/10/06 09:13:21;;;;;;;17.40;8.40;;;;;;;16.96;76.11;98906.95;106490;1270;24395;-83
2022/10/06 09:16:12;;;;;;;14.00;6.00;;;;;;;17.09;74.17;98922.27;106513;1271;22525;-84
2022/10/06 09:18:48;;;;;;;9.40;5.60;;;;;;;17.11;72.76;98924.30;106408;1271;24403;-83
2022/10/06 09:21:49;;;;;;;8.90;5.30;;;;;;;17.02;72.00;98915.50;106511;1271;25385;-83
2022/10/06 09:24:29;;;;;;;11.40;5.90;;;;;;;16.89;71.77;98915.48;106506;1271;22556;-82
2022/10/06 09:26:57;;;;;;;8.60;5.20;;;;;;;16.82;71.74;98915.21;106337;1272;22724;-82
2022/10/06 09:29:30;;;;;;;12.90;5.90;;;;;;;16.80;72.42;98916.33;106509;1271;23239;-82
2022/10/06 09:31:59;;;;;;;11.30;6.00;;;;;;;16.89;71.97;98919.14;106524;1271;22604;-82
2022/10/06 09:34:41;;;;;;;12.50;6.80;;;;;;;16.89;72.23;98920.01;106508;1271;22575;-82
2022/10/06 09:37:11;;;;;;;15.60;6.60;;;;;;;17.02;72.65;98918.89;106467;1271;25219;-84
2022/10/06 09:39:44;;;;;;;8.90;5.20;;;;;;;17.12;72.47;98921.52;106549;1271;22613;-82
2022/10/06 09:42:34;;;;;;;8.80;5.70;;;;;;;17.24;72.98;98922.16;106312;1272;22525;-82
2022/10/06 09:45:23;;;;;;;10.60;5.40;;;;;;;17.41;71.96;98918.88;106524;1271;25228;-82
2022/10/06 09:47:51;;;;;;;10.80;6.30;;;;;;;17.51;71.89;98918.14;106368;1271;25294;-83
2022/10/06 09:50:23;;;;;;;11.50;7.40;;;;;;;17.60;72.08;98915.15;106487;1271;25340;-83
2022/10/06 09:53:02;;;;;;;9.60;6.10;;;;;;;17.71;71.39;98922.48;106341;1271;22961;-83
2022/10/06 09:55:36;;;;;;;11.00;6.60;;;;;;;17.74;70.92;98925.50;106364;1271;22753;-84
2022/10/06 09:58:23;;;;;;;12.20;8.60;;;;;;;17.78;71.54;98929.38;106377;1271;128930;-83
2022/10/06 10:00:53;;;;;;;12.50;7.80;;;;;;;17.82;70.23;98930.02;106502;1271;25317;-82
2022/10/06 10:03:24;;;;;;;11.90;7.00;;;;;;;17.80;69.75;98934.12;106557;1271;22528;-83
2022/10/06 10:05:53;;;;;;;18.10;8.60;;;;;;;17.85;69.81;98943.55;106559;1271;24961;-83
2022/10/06 10:08:29;;;;;;;11.40;7.00;;;;;;;17.89;70.06;98948.23;106467;1271;25337;-83
2022/10/06 10:11:07;;;;;;;13.60;6.40;;;;;;;17.97;69.57;98957.73;106420;1271;24292;-84
2022/10/06 10:13:42;;;;;;;10.00;5.70;;;;;;;18.05;69.40;98954.33;106414;1271;22563;-83
2022/10/06 10:16:15;;;;;;;13.00;6.60;;;;;;;18.09;69.46;98950.15;106403;1271;24298;-83
2022/10/06 10:18:48;;;;;;;12.60;7.20;;;;;;;18.22;69.21;98952.45;106289;1274;23929;-82
2022/10/06 10:21:32;;;;;;;12.40;5.70;;;;;;;18.29;68.78;98949.16;106514;1271;23455;-84
2022/10/06 10:24:04;;;;;;;11.80;6.10;;;;;;;18.40;69.00;98950.17;106467;1271;22546;-83
2022/10/06 10:26:48;;;;;;;21.90;6.00;;;;;;;18.51;68.35;98957.91;106354;1271;26765;-84
2022/10/06 10:29:42;;;;;;;9.20;6.30;;;;;;;18.58;67.55;98956.61;106407;1271;26612;-83
2022/10/06 10:32:30;;;;;;;10.80;5.80;;;;;;;18.65;67.46;98949.00;106420;1271;23334;-83
2022/10/06 10:35:19;;;;;;;13.40;6.20;;;;;;;18.78;67.34;98950.69;106447;1271;24411;-83
2022/10/06 10:38:15;;;;;;;12.00;5.70;;;;;;;18.86;67.84;98949.53;106514;1271;22535;-84
2022/10/06 10:40:50;;;;;;;13.10;6.30;;;;;;;18.96;67.53;98949.81;106477;1271;22608;-84
2022/10/06 10:43:30;;;;;;;11.30;5.10;;;;;;;18.99;67.96;98953.48;106294;1271;22531;-83
2022/10/06 10:46:31;;;;;;;9.90;4.80;;;;;;;18.96;67.11;98960.31;106418;1271;22563;-84
2022/10/06 10:49:22;;;;;;;9.60;5.30;;;;;;;18.80;67.06;98960.13;106104;1277;25541;-83
2022/10/06 10:51:57;;;;;;;11.60;5.30;;;;;;;18.64;66.45;98964.68;106118;1277;25229;-82
2022/10/06 10:54:37;;;;;;;9.40;5.40;;;;;;;18.61;67.05;98960.56;106129;1277;22702;-81
2022/10/06 10:57:12;;;;;;;12.30;5.40;;;;;;;18.75;67.94;98950.41;106106;1277;22719;-82
2022/10/06 10:59:46;;;;;;;9.70;5.40;;;;;;;18.94;66.90;98949.17;106111;1277;22872;-84
2022/10/06 11:02:20;;;;;;;13.00;5.60;;;;;;;18.99;66.49;98948.61;106004;1277;22549;-83
2022/10/06 11:04:53;;;;;;;12.20;4.50;;;;;;;18.96;66.35;98953.13;106027;1277;25496;-83
2022/10/06 11:07:41;;;;;;;10.90;5.10;;;;;;;19.00;65.85;98949.41;105999;1277;25337;-82
2022/10/06 11:10:19;;;;;;;11.00;5.20;;;;;;;19.04;66.11;98951.15;106016;1277;25438;-83
2022/10/06 11:13:06;;;;;;;8.40;4.50;;;;;;;19.14;65.76;98955.73;105996;1277;23924;-84
2022/10/06 11:15:52;;;;;;;9.30;4.40;;;;;;;19.33;66.16;98958.80;106013;1277;22529;-82
2022/10/06 11:18:41;;;;;;;8.70;4.40;;;;;;;19.50;65.24;98955.36;106027;1277;25197;-83
2022/10/06 11:21:33;;;;;;;15.20;6.30;;;;;;;19.63;64.47;98955.15;105952;1276;22558;-83
2022/10/06 11:24:11;;;;;;;10.00;5.10;;;;;;;19.80;64.23;98958.08;106189;1277;25522;-83
2022/10/06 11:26:58;;;;;;;10.80;5.60;;;;;;;19.90;63.70;98962.20;106323;1271;23304;-83
2022/10/06 11:29:41;;;;;;;10.60;5.00;;;;;;;19.89;63.61;98961.85;106458;1271;22688;-83
2022/10/06 11:32:46;;;;;;;9.50;5.30;;;;;;;19.96;63.56;98960.29;106486;1271;22550;-83
2022/10/06 11:35:20;;;;;;;13.40;5.70;;;;;;;20.25;63.48;98956.01;106423;1271;22859;-84
2022/10/06 11:38:02;;;;;;;12.50;6.10;;;;;;;20.54;63.36;98963.45;106404;1271;23218;-83
2022/10/06 11:40:33;;;;;;;10.80;5.20;;;;;;;20.61;62.57;98966.15;106376;1271;22688;-83
2022/10/06 11:43:33;;;;;;;28.20;7.30;;;;;;;20.44;62.54;98969.52;106395;1271;24219;-83
2022/10/06 11:46:08;;;;;;;15.40;5.60;;;;;;;20.20;63.29;98968.52;106285;1271;22569;-83
2022/10/06 11:48:37;;;;;;;64.10;10.70;;;;;;;20.04;62.78;98971.77;106391;1271;22762;-83
2022/10/06 11:51:23;;;;;;;326.90;38.20;;;;;;;19.82;63.31;98969.70;106420;1271;22563;-81
2022/10/06 11:53:51;;;;;;;28.20;6.90;;;;;;;19.63;63.44;98975.52;106367;1271;25495;-83
2022/10/06 11:56:19;;;;;;;11.70;6.00;;;;;;;19.47;63.85;98973.05;106378;1271;22549;-84
2022/10/06 11:58:50;;;;;;;20.90;6.60;;;;;;;19.38;64.23;98972.66;106349;1270;22553;-83
2022/10/06 12:01:31;;;;;;;12.10;5.60;;;;;;;19.32;64.47;98979.77;106400;1271;25295;-83
2022/10/06 12:04:08;;;;;;;9.50;6.10;;;;;;;19.18;64.55;98983.92;106349;1271;22542;-83